Main page
METAR-TAF:

METAR-TAF

Airports :

Calvinia, South Africa

latitude: 31-28-56S, longitude: 19-45-43E, elevation: 977 m

Current weather observation

The report was made 15 hours and 42 minutes ago, at 08:41 UTC
Wind 15 kt from the West/Southwest
Temperature 22°C
Humidity 38%
Pressure 1016 hPa
Visibility 10 km or more
Few clouds at a height of 2500 ft

METAR: FACV 180841Z 25015KT 9999 FEW025 22/07 Q1016

Time: 02:23 (00:23 UTC)


TAF: missing

Weather observations and forecasts of more than 4000 airports (METAR and TAF reports).

The available stations are represented by yellow and red dots on the map.

Hover mouse over dot to see the name of the station.

Then click to see weather observations and forecasts.

To change the map : click on the green buttons with a black cross to zoom in, on the green button with a dash to zoom out, or on the green arrows for adjacent maps.


METAR-TAF: